Time;durP1;ratioP1;P1;durP2;ratioP2;P2;SDS_P1;SDS_P2;PMS_P1;PMS_P2;Temp;Humidity;BMP_temperature;BMP_pressure;BME280_temperature;BME280_humidity;BME280_pressure;Samples;Min_cycle;Max_cycle;Signal;HPM_P1;HPM_P2
2021/08/14 00:00:05;;;;;;;7.28;5.43;;;;;;;;;;5097292;28;20206;-89
2021/08/14 00:02:31;;;;;;;6.43;5.38;;;;;;;;;;5096882;28;20206;-89
2021/08/14 00:04:58;;;;;;;6.22;5.30;;;;;;;;;;5095679;28;20205;-88
2021/08/14 00:07:26;;;;;;;5.78;5.28;;;;;;;;;;5095917;28;20206;-88
2021/08/14 00:09:53;;;;;;;7.78;5.00;;;;;;;;;;5094884;28;20202;-89
2021/08/14 00:12:19;;;;;;;6.53;5.28;;;;;;;;;;5095903;28;20182;-88
2021/08/14 00:14:46;;;;;;;5.78;5.28;;;;;;;;;;5095079;28;20202;-89
2021/08/14 00:17:13;;;;;;;5.15;4.75;;;;;;;;;;5095764;28;20198;-90
2021/08/14 00:19:39;;;;;;;6.55;5.50;;;;;;;;;;5098647;28;20189;-89
2021/08/14 00:22:06;;;;;;;7.45;5.40;;;;;;;;;;5094666;28;20245;-87
2021/08/14 00:24:34;;;;;;;9.40;5.40;;;;;;;;;;5093855;28;20194;-87
2021/08/14 00:27:01;;;;;;;5.88;5.30;;;;;;;;;;5093347;28;20223;-87
2021/08/14 00:29:27;;;;;;;5.80;5.28;;;;;;;;;;5093856;28;20205;-87
2021/08/14 00:31:54;;;;;;;7.10;5.20;;;;;;;;;;5093393;28;20197;-87
2021/08/14 00:34:21;;;;;;;8.95;5.20;;;;;;;;;;5093275;28;20225;-86
2021/08/14 00:36:47;;;;;;;6.18;5.13;;;;;;;;;;5095153;28;20254;-88
2021/08/14 00:39:14;;;;;;;5.82;5.10;;;;;;;;;;5094467;28;20189;-88
2021/08/14 00:41:42;;;;;;;6.32;5.20;;;;;;;;;;5094459;28;20253;-88
2021/08/14 00:44:09;;;;;;;5.93;5.40;;;;;;;;;;5093390;28;20224;-88
2021/08/14 00:46:36;;;;;;;5.70;5.20;;;;;;;;;;5093577;28;20223;-88
2021/08/14 00:49:03;;;;;;;6.28;4.88;;;;;;;;;;5095045;28;20704;-88
2021/08/14 00:51:30;;;;;;;5.85;5.32;;;;;;;;;;5093680;28;20240;-88
2021/08/14 00:53:56;;;;;;;5.18;4.78;;;;;;;;;;5094007;28;20247;-87
2021/08/14 00:56:25;;;;;;;5.78;4.88;;;;;;;;;;5095000;28;20209;-88
2021/08/14 00:58:54;;;;;;;8.60;5.13;;;;;;;;;;5093232;28;20190;-88
2021/08/14 01:01:21;;;;;;;5.43;4.85;;;;;;;;;;5094752;28;20225;-88
2021/08/14 01:03:48;;;;;;;5.75;4.68;;;;;;;;;;5094489;28;20221;-88
2021/08/14 01:06:15;;;;;;;5.35;4.70;;;;;;;;;;5093517;28;20251;-87
2021/08/14 01:08:42;;;;;;;5.97;5.25;;;;;;;;;;5092748;28;20708;-87
2021/08/14 01:11:09;;;;;;;5.47;4.97;;;;;;;;;;5094300;28;20606;-87
2021/08/14 01:13:36;;;;;;;6.35;4.93;;;;;;;;;;5094980;28;20221;-88
2021/08/14 01:16:05;;;;;;;6.25;4.72;;;;;;;;;;5093207;28;20221;-88
2021/08/14 01:18:32;;;;;;;7.53;4.68;;;;;;;;;;5093442;28;20190;-88
2021/08/14 01:20:59;;;;;;;5.07;4.68;;;;;;;;;;5092906;28;20229;-88
2021/08/14 01:23:25;;;;;;;6.53;5.10;;;;;;;;;;5092427;28;20229;-87
2021/08/14 01:26:02;;;;;;;5.35;4.95;;;;;;;;;;5094302;28;20213;-88
2021/08/14 01:28:31;;;;;;;5.70;5.10;;;;;;;;;;5092816;28;20201;-87
2021/08/14 01:30:58;;;;;;;7.05;5.28;;;;;;;;;;5092699;28;20202;-87
2021/08/14 01:33:25;;;;;;;6.55;4.80;;;;;;;;;;5094095;28;20213;-88
2021/08/14 01:35:52;;;;;;;7.63;5.13;;;;;;;;;;5093945;28;20209;-87
2021/08/14 01:38:19;;;;;;;5.25;4.80;;;;;;;;;;5094019;28;20210;-88
2021/08/14 01:40:45;;;;;;;6.18;5.07;;;;;;;;;;5093300;28;20210;-87
2021/08/14 01:43:12;;;;;;;7.38;4.90;;;;;;;;;;5094198;28;20170;-88
2021/08/14 01:45:41;;;;;;;5.20;4.70;;;;;;;;;;5092345;28;20565;-87
2021/08/14 01:48:08;;;;;;;6.03;5.35;;;;;;;;;;5092548;28;20653;-87
2021/08/14 01:50:35;;;;;;;5.47;5.03;;;;;;;;;;5092604;28;20224;-87
2021/08/14 01:53:01;;;;;;;5.55;5.10;;;;;;;;;;5092201;28;20190;-87
2021/08/14 01:55:28;;;;;;;6.68;5.40;;;;;;;;;;5091365;28;20256;-88
2021/08/14 01:57:55;;;;;;;5.50;5.00;;;;;;;;;;5093291;28;20237;-87
2021/08/14 02:00:21;;;;;;;5.30;4.90;;;;;;;;;;5092482;28;20197;-87
2021/08/14 02:02:49;;;;;;;5.47;5.07;;;;;;;;;;5091748;28;20713;-87
2021/08/14 02:05:16;;;;;;;7.10;4.93;;;;;;;;;;5093666;28;20248;-88
2021/08/14 02:07:43;;;;;;;6.15;5.32;;;;;;;;;;5092087;28;20569;-87
2021/08/14 02:10:10;;;;;;;5.55;5.03;;;;;;;;;;5093518;28;20233;-87
2021/08/14 02:12:37;;;;;;;5.28;4.78;;;;;;;;;;5091996;28;20225;-88
2021/08/14 02:15:04;;;;;;;6.68;5.68;;;;;;;;;;5092977;28;20205;-87
2021/08/14 02:17:32;;;;;;;6.45;5.30;;;;;;;;;;5092997;28;20186;-87
2021/08/14 02:20:00;;;;;;;5.55;5.03;;;;;;;;;;5093360;28;20680;-87
2021/08/14 02:22:27;;;;;;;6.40;5.78;;;;;;;;;;5091908;28;20260;-87
2021/08/14 02:24:53;;;;;;;6.25;5.35;;;;;;;;;;5091792;28;20254;-87
2021/08/14 02:27:20;;;;;;;5.22;4.72;;;;;;;;;;5092011;28;20247;-88
2021/08/14 02:29:47;;;;;;;5.68;5.18;;;;;;;;;;5091950;28;20204;-89
2021/08/14 02:32:13;;;;;;;5.63;5.15;;;;;;;;;;5091374;28;20174;-87
2021/08/14 02:34:40;;;;;;;6.45;4.90;;;;;;;;;;5091619;28;20576;-88
2021/08/14 02:37:08;;;;;;;7.60;5.75;;;;;;;;;;5092911;28;20228;-87
2021/08/14 02:39:35;;;;;;;6.60;6.00;;;;;;;;;;5092769;28;20681;-87
2021/08/14 02:42:01;;;;;;;7.90;5.60;;;;;;;;;;5091574;28;20605;-87
2021/08/14 02:44:28;;;;;;;6.70;6.03;;;;;;;;;;5091116;28;20202;-88
2021/08/14 02:46:55;;;;;;;6.30;5.70;;;;;;;;;;5091326;28;20197;-87
2021/08/14 02:49:21;;;;;;;6.22;5.72;;;;;;;;;;5091695;28;20190;-87
2021/08/14 02:51:48;;;;;;;7.03;6.05;;;;;;;;;;5093032;28;20241;-87
2021/08/14 02:54:16;;;;;;;7.65;5.97;;;;;;;;;;5091432;28;20224;-88
2021/08/14 02:56:43;;;;;;;6.90;6.13;;;;;;;;;;5091155;28;20201;-88
2021/08/14 02:59:09;;;;;;;8.00;6.50;;;;;;;;;;5091586;28;20557;-87
2021/08/14 03:01:36;;;;;;;6.70;5.97;;;;;;;;;;5092975;28;20185;-88
2021/08/14 03:04:03;;;;;;;6.55;5.82;;;;;;;;;;5090687;28;20226;-88
2021/08/14 03:06:29;;;;;;;6.10;5.50;;;;;;;;;;5091019;28;20201;-88
2021/08/14 03:08:56;;;;;;;7.80;5.85;;;;;;;;;;5092861;28;20178;-87
2021/08/14 03:11:24;;;;;;;7.18;6.45;;;;;;;;;;5090796;28;20220;-87
2021/08/14 03:13:51;;;;;;;6.88;6.13;;;;;;;;;;5090788;28;20201;-87
2021/08/14 03:16:17;;;;;;;6.53;6.03;;;;;;;;;;5090754;28;20240;-87
2021/08/14 03:18:44;;;;;;;6.75;6.13;;;;;;;;;;5092283;28;20213;-87
2021/08/14 03:21:11;;;;;;;6.60;6.00;;;;;;;;;;5092231;28;20751;-87
2021/08/14 03:23:37;;;;;;;7.45;6.65;;;;;;;;;;5090574;28;20701;-88
2021/08/14 03:26:04;;;;;;;6.18;5.57;;;;;;;;;;5092134;28;20246;-87
2021/08/14 03:28:32;;;;;;;5.95;5.45;;;;;;;;;;5092281;28;20202;-88
2021/08/14 03:30:59;;;;;;;6.85;6.15;;;;;;;;;;5090184;28;20205;-86
2021/08/14 03:33:25;;;;;;;6.60;6.00;;;;;;;;;;5091644;28;20565;-88
2021/08/14 03:35:52;;;;;;;11.25;6.00;;;;;;;;;;5090808;28;20667;-88
2021/08/14 03:38:19;;;;;;;10.07;6.65;;;;;;;;;;5091302;28;20205;-88
2021/08/14 03:40:45;;;;;;;7.03;6.00;;;;;;;;;;5091011;28;20210;-86
2021/08/14 03:43:12;;;;;;;6.55;5.78;;;;;;;;;;5090504;28;20233;-88
2021/08/14 03:45:40;;;;;;;7.22;5.90;;;;;;;;;;5091492;28;20206;-86
2021/08/14 03:48:07;;;;;;;7.05;5.85;;;;;;;;;;5090654;28;20569;-87
2021/08/14 03:50:33;;;;;;;6.38;5.82;;;;;;;;;;5091002;28;20256;-88
2021/08/14 03:53:00;;;;;;;6.05;5.47;;;;;;;;;;5095176;28;20175;-90
2021/08/14 03:55:27;;;;;;;8.25;5.78;;;;;;;;;;5095220;28;20190;-89
2021/08/14 03:57:53;;;;;;;7.88;6.03;;;;;;;;;;5093974;28;20218;-89
2021/08/14 04:00:20;;;;;;;7.40;5.75;;;;;;;;;;5094738;28;20179;-91
2021/08/14 04:02:48;;;;;;;7.43;5.70;;;;;;;;;;5093491;28;20260;-89
2021/08/14 04:05:15;;;;;;;7.25;6.55;;;;;;;;;;5094997;28;20228;-90
2021/08/14 04:07:41;;;;;;;6.00;5.60;;;;;;;;;;5094214;28;20205;-91
2021/08/14 04:10:09;;;;;;;7.35;6.10;;;;;;;;;;5098308;28;20174;-92
2021/08/14 04:12:35;;;;;;;7.53;6.38;;;;;;;;;;5096274;28;20197;-92
2021/08/14 04:15:03;;;;;;;7.07;6.45;;;;;;;;;;5096832;28;20206;-90
2021/08/14 04:17:29;;;;;;;8.32;6.05;;;;;;;;;;5099107;28;20182;-92
2021/08/14 04:19:58;;;;;;;6.20;5.70;;;;;;;;;;5100406;28;20213;-93
2021/08/14 04:22:24;;;;;;;6.70;6.20;;;;;;;;;;5100270;28;20225;-91
2021/08/14 04:24:51;;;;;;;6.57;5.90;;;;;;;;;;5101040;28;20178;-91
2021/08/14 04:27:18;;;;;;;6.10;5.60;;;;;;;;;;5100139;28;20660;-89
2021/08/14 04:29:44;;;;;;;6.60;6.00;;;;;;;;;;5101176;28;20558;-92
2021/08/14 04:32:11;;;;;;;8.23;6.57;;;;;;;;;;5101933;28;20178;-92
2021/08/14 04:34:38;;;;;;;6.40;5.80;;;;;;;;;;5100356;28;20201;-90
2021/08/14 04:37:06;;;;;;;6.88;6.10;;;;;;;;;;5100123;28;20201;-91
2021/08/14 04:39:32;;;;;;;6.60;6.00;;;;;;;;;;5100282;28;20190;-91
2021/08/14 04:41:59;;;;;;;6.68;5.78;;;;;;;;;;5100191;28;20209;-91
2021/08/14 04:44:26;;;;;;;6.50;6.00;;;;;;;;;;5098812;28;20244;-90
2021/08/14 04:46:52;;;;;;;7.03;6.32;;;;;;;;;;5095484;28;20661;-88
2021/08/14 04:49:19;;;;;;;6.28;5.85;;;;;;;;;;5095308;28;20661;-89
2021/08/14 04:51:46;;;;;;;6.85;6.25;;;;;;;;;;5096109;28;20221;-89
2021/08/14 04:54:14;;;;;;;6.53;6.03;;;;;;;;;;5096055;28;20194;-88
2021/08/14 04:56:40;;;;;;;6.80;6.10;;;;;;;;;;5097078;28;20247;-89
2021/08/14 04:59:07;;;;;;;6.82;6.22;;;;;;;;;;5096992;28;20194;-89
2021/08/14 05:01:34;;;;;;;6.68;5.93;;;;;;;;;;5096550;28;20186;-88
2021/08/14 05:04:00;;;;;;;6.80;6.20;;;;;;;;;;5096409;28;20259;-89
2021/08/14 05:06:27;;;;;;;8.77;6.05;;;;;;;;;;5097620;28;20194;-88
2021/08/14 05:08:54;;;;;;;9.27;6.00;;;;;;;;;;5096501;28;20213;-89
2021/08/14 05:11:22;;;;;;;8.50;6.65;;;;;;;;;;5095925;28;20259;-88
2021/08/14 05:13:48;;;;;;;6.85;6.25;;;;;;;;;;5093370;28;20198;-85
2021/08/14 05:16:15;;;;;;;7.78;6.15;;;;;;;;;;5093669;28;20260;-87
2021/08/14 05:18:42;;;;;;;7.63;6.90;;;;;;;;;;5095812;28;20179;-88
2021/08/14 05:21:08;;;;;;;7.43;6.30;;;;;;;;;;5094370;28;20189;-88
2021/08/14 05:23:35;;;;;;;7.30;6.07;;;;;;;;;;5095382;28;20654;-87
2021/08/14 05:26:01;;;;;;;6.82;6.18;;;;;;;;;;5095887;28;20174;-87
2021/08/14 05:28:29;;;;;;;8.40;6.43;;;;;;;;;;5094626;28;20251;-89
2021/08/14 05:30:56;;;;;;;7.07;6.38;;;;;;;;;;5097212;28;20206;-90
2021/08/14 05:33:23;;;;;;;6.43;5.78;;;;;;;;;;5097979;28;20183;-89
2021/08/14 05:35:49;;;;;;;6.72;6.07;;;;;;;;;;5099300;28;20174;-89
2021/08/14 05:38:16;;;;;;;7.20;6.50;;;;;;;;;;5098113;28;20185;-89
2021/08/14 05:40:43;;;;;;;7.68;6.88;;;;;;;;;;5097011;28;20577;-88
2021/08/14 05:43:09;;;;;;;7.72;6.32;;;;;;;;;;5093504;28;20202;-87
2021/08/14 05:45:38;;;;;;;6.45;5.85;;;;;;;;;;5092836;28;20229;-88
2021/08/14 05:48:05;;;;;;;6.78;5.90;;;;;;;;;;5094611;28;20209;-83
2021/08/14 05:50:31;;;;;;;8.43;6.45;;;;;;;;;;5092832;28;20257;-83
2021/08/14 05:52:58;;;;;;;6.82;6.22;;;;;;;;;;5092623;28;20234;-84
2021/08/14 05:55:26;;;;;;;7.50;6.38;;;;;;;;;;5091737;28;20225;-84
2021/08/14 05:57:54;;;;;;;10.20;6.55;;;;;;;;;;5091630;28;20182;-83
2021/08/14 06:00:21;;;;;;;10.95;6.85;;;;;;;;;;5091342;28;20236;-83
2021/08/14 06:02:49;;;;;;;8.00;7.20;;;;;;;;;;5091535;28;20253;-84
2021/08/14 06:05:15;;;;;;;8.05;7.25;;;;;;;;;;5090974;28;20613;-84
2021/08/14 06:07:42;;;;;;;7.78;6.50;;;;;;;;;;5093003;28;20233;-83
2021/08/14 06:10:09;;;;;;;6.32;5.82;;;;;;;;;;5092663;28;20229;-84
2021/08/14 06:12:36;;;;;;;6.55;5.90;;;;;;;;;;5092765;28;20233;-84
2021/08/14 06:15:03;;;;;;;6.35;5.72;;;;;;;;;;5091444;28;20263;-84
2021/08/14 06:17:29;;;;;;;5.65;5.25;;;;;;;;;;5091288;28;20194;-84
2021/08/14 06:19:57;;;;;;;10.02;5.80;;;;;;;;;;5090930;28;20669;-84
2021/08/14 06:22:24;;;;;;;6.68;6.05;;;;;;;;;;5092884;28;20217;-85
2021/08/14 06:24:52;;;;;;;6.15;5.65;;;;;;;;;;5092379;28;20254;-85
2021/08/14 06:27:19;;;;;;;10.02;6.03;;;;;;;;;;5092349;28;20216;-85
2021/08/14 06:29:46;;;;;;;6.65;6.15;;;;;;;;;;5092561;28;20237;-84
2021/08/14 06:32:12;;;;;;;8.30;6.35;;;;;;;;;;5092597;28;20206;-85
2021/08/14 06:34:39;;;;;;;8.55;6.53;;;;;;;;;;5092253;28;20244;-84
2021/08/14 06:37:07;;;;;;;6.60;6.00;;;;;;;;;;5091195;28;20190;-85
2021/08/14 06:39:34;;;;;;;7.70;6.38;;;;;;;;;;5091748;28;20246;-85
2021/08/14 06:42:00;;;;;;;8.93;5.78;;;;;;;;;;5090398;28;20201;-84
2021/08/14 06:44:27;;;;;;;6.75;6.07;;;;;;;;;;5092324;28;20261;-85
2021/08/14 06:46:54;;;;;;;6.15;5.57;;;;;;;;;;5092179;28;20237;-84
2021/08/14 06:49:21;;;;;;;7.38;5.85;;;;;;;;;;5092561;28;20728;-85
2021/08/14 06:51:48;;;;;;;6.75;6.03;;;;;;;;;;5091405;28;20701;-84
2021/08/14 06:54:16;;;;;;;7.57;6.13;;;;;;;;;;5090721;28;20201;-85
2021/08/14 06:56:43;;;;;;;6.70;6.10;;;;;;;;;;5092168;28;20240;-84
2021/08/14 06:59:10;;;;;;;6.78;6.07;;;;;;;;;;5090776;28;20592;-84
2021/08/14 07:01:36;;;;;;;7.95;6.05;;;;;;;;;;5090518;28;20274;-84
2021/08/14 07:04:03;;;;;;;6.25;5.65;;;;;;;;;;5090135;28;20233;-85
2021/08/14 07:06:30;;;;;;;6.65;5.93;;;;;;;;;;5091669;28;20216;-85
2021/08/14 07:08:56;;;;;;;7.90;6.03;;;;;;;;;;5091865;28;20649;-86
2021/08/14 07:11:25;;;;;;;7.38;6.00;;;;;;;;;;5090416;28;20197;-84
2021/08/14 07:13:51;;;;;;;6.85;6.10;;;;;;;;;;5092372;28;20228;-85
2021/08/14 07:16:18;;;;;;;7.13;6.38;;;;;;;;;;5090467;28;20250;-85
2021/08/14 07:18:45;;;;;;;7.38;6.10;;;;;;;;;;5090682;28;20185;-86
2021/08/14 07:21:12;;;;;;;7.00;6.40;;;;;;;;;;5090659;28;20205;-86
2021/08/14 07:23:38;;;;;;;8.02;6.55;;;;;;;;;;5091614;28;20249;-85
2021/08/14 07:26:05;;;;;;;6.80;6.07;;;;;;;;;;5090397;28;20210;-85
2021/08/14 07:28:33;;;;;;;6.70;6.18;;;;;;;;;;5091890;28;20583;-85
2021/08/14 07:31:00;;;;;;;6.95;6.28;;;;;;;;;;5091679;28;20213;-85
2021/08/14 07:33:27;;;;;;;6.57;5.88;;;;;;;;;;5091733;28;20745;-86
2021/08/14 07:35:53;;;;;;;10.00;6.68;;;;;;;;;;5091941;28;20243;-85
2021/08/14 07:38:20;;;;;;;5.95;5.35;;;;;;;;;;5090195;28;20225;-84
2021/08/14 07:40:47;;;;;;;7.50;5.93;;;;;;;;;;5091493;28;20212;-85
2021/08/14 07:43:13;;;;;;;7.90;6.45;;;;;;;;;;5091887;28;20244;-86
2021/08/14 07:45:42;;;;;;;6.95;5.72;;;;;;;;;;5089997;28;20237;-86
2021/08/14 07:48:08;;;;;;;7.47;5.68;;;;;;;;;;5090072;28;20251;-87
2021/08/14 07:50:36;;;;;;;8.80;6.32;;;;;;;;;;5091696;28;20257;-86
2021/08/14 07:53:03;;;;;;;6.20;5.63;;;;;;;;;;5091825;28;20210;-85
2021/08/14 07:55:30;;;;;;;7.25;5.70;;;;;;;;;;5093958;28;20216;-83
2021/08/14 07:57:57;;;;;;;7.78;5.88;;;;;;;;;;5095801;28;20237;-83
2021/08/14 08:00:24;;;;;;;6.05;5.45;;;;;;;;;;5093626;28;20194;-84
2021/08/14 08:02:53;;;;;;;6.68;5.53;;;;;;;;;;5093860;28;20290;-84
2021/08/14 08:05:20;;;;;;;5.72;5.20;;;;;;;;;;5093568;28;20259;-85
2021/08/14 08:07:47;;;;;;;5.78;5.25;;;;;;;;;;5093987;28;20249;-84
2021/08/14 08:10:14;;;;;;;6.38;5.78;;;;;;;;;;5094942;28;20680;-84
2021/08/14 08:12:41;;;;;;;6.32;5.00;;;;;;;;;;5094682;28;20237;-85
2021/08/14 08:15:08;;;;;;;5.40;5.00;;;;;;;;;;5082479;28;20224;-84
2021/08/14 08:17:35;;;;;;;8.05;5.40;;;;;;;;;;5093040;28;20649;-83
2021/08/14 08:20:04;;;;;;;6.72;5.88;;;;;;;;;;5086445;28;20202;-86
2021/08/14 08:22:30;;;;;;;6.55;5.75;;;;;;;;;;5073127;28;20234;-82
2021/08/14 08:24:57;;;;;;;5.53;5.10;;;;;;;;;;5077200;28;20245;-84
2021/08/14 08:27:24;;;;;;;6.47;5.50;;;;;;;;;;5094487;28;20217;-81
2021/08/14 08:29:50;;;;;;;5.88;5.38;;;;;;;;;;5093019;28;20210;-80
2021/08/14 08:32:17;;;;;;;6.13;5.15;;;;;;;;;;5094560;28;20217;-82
2021/08/14 08:34:44;;;;;;;6.13;5.30;;;;;;;;;;5093001;28;20174;-81
2021/08/14 08:37:12;;;;;;;8.93;5.75;;;;;;;;;;5094438;28;20213;-80
2021/08/14 08:39:38;;;;;;;6.60;5.30;;;;;;;;;;5092360;28;20692;-82
2021/08/14 08:42:07;;;;;;;5.28;4.80;;;;;;;;;;5092033;28;20218;-91
2021/08/14 08:44:34;;;;;;;6.28;5.68;;;;;;;;;;5074880;28;20230;-81
2021/08/14 08:47:01;;;;;;;5.47;4.97;;;;;;;;;;5074227;28;20175;-81
2021/08/14 08:49:29;;;;;;;7.03;6.25;;;;;;;;;;5072506;28;20228;-81
2021/08/14 08:51:56;;;;;;;6.93;5.75;;;;;;;;;;5074081;28;20699;-83
2021/08/14 08:54:24;;;;;;;11.93;5.57;;;;;;;;;;5073883;28;20210;-82
2021/08/14 08:56:51;;;;;;;6.63;5.38;;;;;;;;;;5073606;28;20626;-81
2021/08/14 08:59:17;;;;;;;6.03;5.43;;;;;;;;;;5072565;28;20558;-82
2021/08/14 09:01:44;;;;;;;8.60;5.78;;;;;;;;;;5074162;28;20556;-80
2021/08/14 09:04:24;;;;;;;6.03;5.35;;;;;;;;;;5070787;28;20685;-83
2021/08/14 09:06:51;;;;;;;5.75;5.25;;;;;;;;;;5085223;28;20213;-82
2021/08/14 09:09:24;;;;;;;6.63;5.03;;;;;;;;;;5092445;28;20225;-83
2021/08/14 09:11:53;;;;;;;8.15;5.53;;;;;;;;;;5094382;28;20202;-81
2021/08/14 09:14:20;;;;;;;6.53;5.60;;;;;;;;;;5094023;28;20217;-79
2021/08/14 09:16:46;;;;;;;7.45;5.07;;;;;;;;;;5093696;28;20578;-81
2021/08/14 09:19:23;;;;;;;7.20;5.78;;;;;;;;;;5093872;28;20202;-81
2021/08/14 09:21:49;;;;;;;5.20;4.82;;;;;;;;;;5078147;28;20234;-82
2021/08/14 09:24:29;;;;;;;7.22;5.43;;;;;;;;;;5073390;28;20216;-81
2021/08/14 09:27:01;;;;;;;10.00;5.50;;;;;;;;;;5084395;28;20753;-80
2021/08/14 09:29:29;;;;;;;5.30;4.80;;;;;;;;;;5079421;28;20249;-81
2021/08/14 09:31:56;;;;;;;7.63;5.47;;;;;;;;;;5089455;28;20600;-81
2021/08/14 09:34:23;;;;;;;6.75;4.90;;;;;;;;;;5091478;28;20238;-81
2021/08/14 09:36:58;;;;;;;4.82;4.38;;;;;;;;;;5078296;28;20225;-80
2021/08/14 09:39:24;;;;;;;5.25;4.53;;;;;;;;;;5087616;28;20247;-81
2021/08/14 09:42:01;;;;;;;6.90;4.85;;;;;;;;;;5090688;28;20208;-81
2021/08/14 09:44:28;;;;;;;6.07;5.10;;;;;;;;;;5072866;28;20241;-82
2021/08/14 09:46:55;;;;;;;9.20;4.70;;;;;;;;;;5082934;28;20214;-82
2021/08/14 09:49:21;;;;;;;5.07;4.60;;;;;;;;;;5093306;28;20213;-84
2021/08/14 09:51:48;;;;;;;5.75;5.22;;;;;;;;;;5092910;28;20257;-84
2021/08/14 09:54:15;;;;;;;12.27;4.82;;;;;;;;;;5092376;28;20560;-84
2021/08/14 09:56:41;;;;;;;11.68;5.30;;;;;;;;;;5093082;28;20206;-83
2021/08/14 09:59:09;;;;;;;5.00;4.43;;;;;;;;;;5093072;28;20226;-84
2021/08/14 10:01:37;;;;;;;7.80;4.97;;;;;;;;;;5089725;28;20650;-83
2021/08/14 10:04:03;;;;;;;5.95;5.18;;;;;;;;;;5081984;28;20256;-83
2021/08/14 10:06:30;;;;;;;5.47;4.40;;;;;;;;;;5092874;28;20253;-83
2021/08/14 10:08:57;;;;;;;7.93;5.10;;;;;;;;;;5092735;28;20305;-83
2021/08/14 10:11:24;;;;;;;5.68;5.07;;;;;;;;;;5093611;28;20202;-87
2021/08/14 10:13:52;;;;;;;5.22;4.78;;;;;;;;;;5091238;28;20297;-86
2021/08/14 10:16:20;;;;;;;7.65;4.50;;;;;;;;;;5072235;28;20230;-85
2021/08/14 10:18:47;;;;;;;6.65;4.80;;;;;;;;;;5070976;28;20656;-81
2021/08/14 10:21:16;;;;;;;6.65;4.57;;;;;;;;;;5077294;28;20194;-84
2021/08/14 10:23:45;;;;;;;6.05;5.45;;;;;;;;;;5092594;28;20214;-83
2021/08/14 10:26:14;;;;;;;5.18;4.85;;;;;;;;;;5091031;28;20253;-86
2021/08/14 10:28:46;;;;;;;5.63;4.97;;;;;;;;;;5092042;28;20289;-87
2021/08/14 10:31:32;;;;;;;7.63;4.72;;;;;;;;;;5096058;28;20183;-91
2021/08/14 10:34:00;;;;;;;5.18;4.55;;;;;;;;;;5094685;28;20212;-85
2021/08/14 10:36:46;;;;;;;5.95;4.70;;;;;;;;;;5087287;28;20205;-87
2021/08/14 10:39:17;;;;;;;5.15;4.75;;;;;;;;;;5072885;28;20206;-85
2021/08/14 10:41:44;;;;;;;4.93;4.60;;;;;;;;;;5082722;28;20220;-87
2021/08/14 10:44:11;;;;;;;5.72;4.85;;;;;;;;;;5073180;28;20218;-82
2021/08/14 10:46:39;;;;;;;7.82;5.07;;;;;;;;;;5074608;28;20222;-82
2021/08/14 10:49:08;;;;;;;5.00;4.40;;;;;;;;;;5092023;28;20232;-80
2021/08/14 10:51:53;;;;;;;6.97;6.28;;;;;;;;;;5091618;28;20713;-82
2021/08/14 10:54:47;;;;;;;7.38;6.22;;;;;;;;;;5088086;28;20669;-84
2021/08/14 10:57:15;;;;;;;5.90;5.35;;;;;;;;;;5083940;28;20661;-83
2021/08/14 11:00:00;;;;;;;11.35;7.20;;;;;;;;;;5092188;28;20233;-83
2021/08/14 11:02:35;;;;;;;6.25;5.07;;;;;;;;;;5090340;28;20557;-84
2021/08/14 11:05:03;;;;;;;6.03;5.40;;;;;;;;;;5090504;28;20217;-85
2021/08/14 11:07:31;;;;;;;5.30;4.85;;;;;;;;;;5090815;28;20198;-84
2021/08/14 11:10:09;;;;;;;4.88;4.47;;;;;;;;;;5091159;28;20273;-84
2021/08/14 11:12:36;;;;;;;8.85;5.05;;;;;;;;;;5092589;28;20224;-85
2021/08/14 11:15:13;;;;;;;4.78;4.38;;;;;;;;;;5092508;28;20212;-86
2021/08/14 11:17:40;;;;;;;5.03;4.53;;;;;;;;;;5090773;28;20255;-85
2021/08/14 11:20:30;;;;;;;9.75;4.95;;;;;;;;;;5091335;28;20286;-84
2021/08/14 11:22:57;;;;;;;7.20;4.38;;;;;;;;;;5090191;28;20251;-84
2021/08/14 11:25:24;;;;;;;5.28;4.38;;;;;;;;;;5077451;28;20254;-84
2021/08/14 11:27:55;;;;;;;4.72;4.30;;;;;;;;;;5093327;28;20201;-84
2021/08/14 11:30:24;;;;;;;4.47;4.07;;;;;;;;;;5095343;28;20236;-82
2021/08/14 11:32:50;;;;;;;6.57;4.50;;;;;;;;;;5115579;27;20276;-83
2021/08/14 11:35:20;;;;;;;4.55;4.25;;;;;;;;;;5075652;28;20241;-82
2021/08/14 11:37:51;;;;;;;4.55;4.15;;;;;;;;;;5074338;28;20564;-83
2021/08/14 11:40:20;;;;;;;4.20;3.83;;;;;;;;;;5082241;28;20229;-83
2021/08/14 11:42:53;;;;;;;4.25;3.85;;;;;;;;;;5083059;28;20225;-82
2021/08/14 11:45:20;;;;;;;7.60;4.10;;;;;;;;;;5075830;28;20238;-84
2021/08/14 11:47:47;;;;;;;6.60;4.25;;;;;;;;;;5090038;28;20237;-84
2021/08/14 11:50:14;;;;;;;4.22;3.85;;;;;;;;;;5074865;28;20262;-82
2021/08/14 11:52:41;;;;;;;4.50;4.10;;;;;;;;;;5074731;28;20238;-83
2021/08/14 11:55:09;;;;;;;5.20;4.07;;;;;;;;;;5089805;28;20234;-83
2021/08/14 11:57:37;;;;;;;4.50;4.10;;;;;;;;;;5072525;28;20728;-83
2021/08/14 12:00:20;;;;;;;8.02;4.97;;;;;;;;;;5074567;28;20206;-82
2021/08/14 12:02:47;;;;;;;6.72;4.50;;;;;;;;;;5072504;28;20593;-82
2021/08/14 12:05:14;;;;;;;4.43;4.10;;;;;;;;;;5074304;28;20257;-82
2021/08/14 12:07:47;;;;;;;5.38;4.82;;;;;;;;;;5092816;28;20194;-84
2021/08/14 12:10:13;;;;;;;7.30;4.47;;;;;;;;;;5092601;28;20615;-82
2021/08/14 12:12:40;;;;;;;4.40;4.05;;;;;;;;;;5092683;28;20255;-81
2021/08/14 12:15:10;;;;;;;4.40;4.07;;;;;;;;;;5094271;28;20240;-82
2021/08/14 12:17:41;;;;;;;8.77;4.28;;;;;;;;;;5094306;28;20222;-82
2021/08/14 12:20:09;;;;;;;5.60;4.47;;;;;;;;;;5094361;28;20230;-82
2021/08/14 12:22:37;;;;;;;5.00;4.35;;;;;;;;;;5092672;28;20236;-84
2021/08/14 12:25:18;;;;;;;4.65;4.25;;;;;;;;;;5094460;28;20245;-81
2021/08/14 12:27:47;;;;;;;4.22;3.85;;;;;;;;;;5091927;28;20242;-81
2021/08/14 12:30:18;;;;;;;4.63;4.25;;;;;;;;;;5093598;28;20217;-82
2021/08/14 12:32:45;;;;;;;4.38;4.07;;;;;;;;;;5092945;28;20202;-82
2021/08/14 12:35:12;;;;;;;6.13;4.10;;;;;;;;;;5093189;28;20243;-81
2021/08/14 12:37:39;;;;;;;4.07;3.70;;;;;;;;;;5094129;28;20238;-82
2021/08/14 12:40:06;;;;;;;4.22;3.65;;;;;;;;;;5092514;28;20212;-82
2021/08/14 12:42:34;;;;;;;4.03;3.65;;;;;;;;;;5094289;28;20240;-84
2021/08/14 12:45:12;;;;;;;6.20;4.00;;;;;;;;;;5094455;28;20248;-83
2021/08/14 12:47:39;;;;;;;4.22;3.92;;;;;;;;;;5092504;28;20252;-83
2021/08/14 12:50:16;;;;;;;7.53;3.95;;;;;;;;;;5092802;28;20257;-81
2021/08/14 12:52:53;;;;;;;4.68;3.80;;;;;;;;;;5094252;28;20236;-82
2021/08/14 12:55:25;;;;;;;4.38;4.07;;;;;;;;;;5092512;28;20685;-81
2021/08/14 12:57:51;;;;;;;4.57;4.28;;;;;;;;;;5092375;28;20227;-82
2021/08/14 13:00:20;;;;;;;8.13;6.70;;;;;;;;;;5094354;28;20633;-82
2021/08/14 13:02:49;;;;;;;4.80;3.85;;;;;;;;;;5092539;28;20257;-82
2021/08/14 13:05:15;;;;;;;5.78;4.22;;;;;;;;;;5092500;28;20201;-83
2021/08/14 13:07:42;;;;;;;7.93;4.18;;;;;;;;;;5092531;28;20245;-82
2021/08/14 13:10:10;;;;;;;4.68;4.18;;;;;;;;;;5094128;28;20255;-82
2021/08/14 13:12:36;;;;;;;4.32;3.90;;;;;;;;;;5093766;28;20228;-84
2021/08/14 13:15:03;;;;;;;4.65;4.25;;;;;;;;;;5092722;28;20725;-83
2021/08/14 13:17:31;;;;;;;3.92;3.63;;;;;;;;;;5092116;28;20542;-83
2021/08/14 13:19:58;;;;;;;5.55;4.25;;;;;;;;;;5091650;28;20241;-84
2021/08/14 13:22:25;;;;;;;4.80;4.30;;;;;;;;;;5091456;28;20278;-82
2021/08/14 13:24:51;;;;;;;4.40;4.20;;;;;;;;;;5093293;28;20709;-82
2021/08/14 13:27:18;;;;;;;4.43;3.88;;;;;;;;;;5091809;28;20241;-82
2021/08/14 13:29:45;;;;;;;4.35;4.00;;;;;;;;;;5091420;28;20233;-82
2021/08/14 13:32:11;;;;;;;4.43;4.03;;;;;;;;;;5093140;28;20244;-82
2021/08/14 13:34:39;;;;;;;6.38;4.30;;;;;;;;;;5092577;28;20214;-82
2021/08/14 13:37:06;;;;;;;4.32;3.92;;;;;;;;;;5091358;28;20962;-82
2021/08/14 13:39:33;;;;;;;4.25;3.88;;;;;;;;;;5092496;28;20217;-82
2021/08/14 13:42:00;;;;;;;5.00;4.00;;;;;;;;;;5092869;28;20170;-82
2021/08/14 13:44:27;;;;;;;4.40;4.10;;;;;;;;;;5090709;28;20237;-82
2021/08/14 13:46:53;;;;;;;4.13;3.83;;;;;;;;;;5091117;28;20237;-82
2021/08/14 13:49:20;;;;;;;4.55;4.15;;;;;;;;;;5092077;28;20569;-81
2021/08/14 13:51:48;;;;;;;4.47;4.00;;;;;;;;;;5090461;28;20765;-81
2021/08/14 13:54:16;;;;;;;4.30;4.00;;;;;;;;;;5092164;28;20233;-82
2021/08/14 13:56:43;;;;;;;4.40;4.10;;;;;;;;;;5090886;28;20251;-82
2021/08/14 13:59:09;;;;;;;4.50;4.05;;;;;;;;;;5092623;28;20209;-81
2021/08/14 14:01:36;;;;;;;4.68;4.30;;;;;;;;;;5090713;28;20802;-87
2021/08/14 14:04:03;;;;;;;4.80;4.40;;;;;;;;;;5092336;28;20720;-81
2021/08/14 14:06:29;;;;;;;5.72;4.15;;;;;;;;;;5092751;28;20260;-81
2021/08/14 14:08:57;;;;;;;4.28;3.85;;;;;;;;;;5092147;28;20252;-80
2021/08/14 14:11:24;;;;;;;5.03;3.92;;;;;;;;;;5092564;28;20282;-82
2021/08/14 14:13:52;;;;;;;4.47;3.40;;;;;;;;;;5092809;28;20198;-82
2021/08/14 14:16:18;;;;;;;4.00;3.67;;;;;;;;;;5092620;28;20246;-83
2021/08/14 14:18:45;;;;;;;5.35;3.80;;;;;;;;;;5092621;28;20242;-79
2021/08/14 14:21:11;;;;;;;8.02;4.03;;;;;;;;;;5092443;28;20252;-82
2021/08/14 14:23:38;;;;;;;6.97;3.97;;;;;;;;;;5091165;28;20201;-81
2021/08/14 14:26:06;;;;;;;4.68;3.83;;;;;;;;;;5093026;28;20264;-83
2021/08/14 14:28:33;;;;;;;3.80;3.60;;;;;;;;;;5091711;28;20242;-83
2021/08/14 14:30:59;;;;;;;4.13;3.72;;;;;;;;;;5092245;28;20237;-86
2021/08/14 14:33:26;;;;;;;3.70;3.45;;;;;;;;;;5091072;28;20185;-84
2021/08/14 14:35:53;;;;;;;5.03;3.75;;;;;;;;;;5090810;28;20535;-85
2021/08/14 14:38:19;;;;;;;4.07;3.30;;;;;;;;;;5090967;28;20650;-83
2021/08/14 14:40:46;;;;;;;4.30;3.80;;;;;;;;;;5089797;28;20206;-81
2021/08/14 14:43:14;;;;;;;3.70;3.40;;;;;;;;;;5090454;28;20275;-82
2021/08/14 14:45:40;;;;;;;5.63;3.75;;;;;;;;;;5091514;28;20197;-84